Time;durP1;ratioP1;P1;durP2;ratioP2;P2;SDS_P1;SDS_P2;PMS_P1;PMS_P2;Temp;Humidity;BMP_temperature;BMP_pressure;BME280_temperature;BME280_humidity;BME280_pressure;Samples;Min_cycle;Max_cycle;Signal;HPM_P1;HPM_P2
2022/11/08 00:19:43;;;;;;;6.40;4.00;;;12.50;99.90;;;;;;2616259;54;20426;-79
2022/11/08 00:25:31;;;;;;;9.07;4.80;;;12.40;99.90;;;;;;2615708;54;20475;-79
2022/11/08 00:34:41;;;;;;;7.53;4.63;;;12.60;99.90;;;;;;2617413;54;20443;-80
2022/11/08 00:40:28;;;;;;;8.10;5.67;;;12.60;99.90;;;;;;2617855;54;20162;-81
2022/11/08 00:46:16;;;;;;;8.77;4.87;;;12.80;99.90;;;;;;2617355;54;20150;-80
2022/11/08 00:52:04;;;;;;;6.43;5.17;;;12.90;99.90;;;;;;2617452;54;20142;-81
2022/11/08 00:57:52;;;;;;;16.70;5.30;;;13.10;99.90;;;;;;2617162;54;20145;-80
2022/11/08 01:03:39;;;;;;;7.97;4.90;;;13.10;99.90;;;;;;2615883;54;20122;-80
2022/11/08 01:09:27;;;;;;;12.70;6.03;;;13.10;99.90;;;;;;2616429;54;20126;-77
2022/11/08 01:15:15;;;;;;;7.80;5.17;;;13.30;99.90;;;;;;2616500;54;20131;-80
2022/11/08 01:21:04;;;;;;;6.97;5.20;;;13.30;99.90;;;;;;2616001;54;20666;-80
2022/11/08 01:26:51;;;;;;;6.00;5.43;;;13.30;99.90;;;;;;2616664;54;20500;-80
2022/11/08 01:30:04;;;;;;;4.93;4.40;;;13.40;99.90;;;;;;2616405;54;20431;-80
2022/11/08 01:32:30;;;;;;;8.20;5.07;;;13.40;99.90;;;;;;2617980;31;20716;-79
2022/11/08 01:38:18;;;;;;;6.20;4.60;;;13.40;99.90;;;;;;2616446;39;20613;-79
2022/11/08 01:44:13;;;;;;;8.77;4.90;;;13.50;99.90;;;;;;2616869;54;20268;-80
2022/11/08 01:50:09;;;;;;;6.00;5.50;;;13.60;99.90;;;;;;2616633;54;20447;-82
2022/11/08 01:55:57;;;;;;;6.60;5.50;;;13.50;99.90;;;;;;2615832;54;20414;-79
2022/11/08 02:01:46;;;;;;;7.77;5.47;;;13.60;99.90;;;;;;2615790;54;20959;-80
2022/11/08 02:07:34;;;;;;;9.20;4.97;;;13.50;99.90;;;;;;2616645;54;20399;-77
2022/11/08 02:13:24;;;;;;;6.10;5.60;;;13.50;99.90;;;;;;2617239;54;20125;-79
2022/11/08 02:25:27;;;;;;;8.03;4.77;;;13.40;99.90;;;;;;2617458;54;20391;-79
2022/11/08 02:41:08;;;;;;;5.77;5.27;;;13.20;99.90;;;;;;2620427;54;20402;-81
2022/11/08 02:46:56;;;;;;;8.10;5.70;;;13.00;99.90;;;;;;2622553;39;20692;-81
2022/11/08 02:52:44;;;;;;;5.13;4.60;;;12.90;99.90;;;;;;2620609;54;20126;-80
2022/11/08 02:58:32;;;;;;;5.50;5.00;;;12.60;99.90;;;;;;2619898;54;20154;-80
2022/11/08 03:04:19;;;;;;;5.97;5.47;;;12.80;99.90;;;;;;2619828;54;20123;-80
2022/11/08 03:10:07;;;;;;;8.70;5.43;;;12.80;99.90;;;;;;2620406;54;20197;-80
2022/11/08 03:15:55;;;;;;;5.40;4.97;;;12.70;99.90;;;;;;2620083;54;20395;-81
2022/11/08 03:21:43;;;;;;;5.33;4.80;;;12.70;99.90;;;;;;2620570;54;20147;-80
2022/11/08 03:27:31;;;;;;;5.40;4.90;;;12.90;99.90;;;;;;2616601;54;20134;-81
2022/11/08 03:33:19;;;;;;;6.63;5.67;;;12.70;99.90;;;;;;2616839;54;20130;-82
2022/11/08 03:42:29;;;;;;;5.53;5.00;;;12.60;99.90;;;;;;2616350;54;20471;-77
2022/11/08 03:48:17;;;;;;;8.47;5.10;;;12.60;99.90;;;;;;2616019;54;20239;-76
2022/11/08 03:54:05;;;;;;;13.13;5.40;;;12.60;99.90;;;;;;2616100;54;21043;-75
2022/11/08 03:59:53;;;;;;;8.90;5.93;;;12.60;99.90;;;;;;2616206;54;20139;-78
2022/11/08 04:05:41;;;;;;;5.77;5.20;;;12.50;99.90;;;;;;2615514;54;20130;-77
2022/11/08 04:23:41;;;;;;;5.43;5.03;;;12.10;99.90;;;;;;2615679;54;20423;-76
2022/11/08 04:29:29;;;;;;;4.87;4.40;;;11.80;99.90;;;;;;2615700;54;20126;-77
2022/11/08 04:35:17;;;;;;;7.07;4.60;;;11.80;99.90;;;;;;2615825;39;20781;-77
2022/11/08 04:41:09;;;;;;;6.07;4.93;;;11.60;99.90;;;;;;2620314;54;20158;-81
2022/11/08 04:43:35;;;;;;;6.17;4.83;;;11.60;99.90;;;;;;2619442;47;20416;-80
2022/11/08 04:46:06;;;;;;;5.53;4.70;;;11.40;99.90;;;;;;2619370;54;20430;-81
2022/11/08 04:51:53;;;;;;;5.53;4.20;;;11.30;99.90;;;;;;2619324;54;20399;-81
2022/11/08 04:57:41;;;;;;;7.40;4.50;;;11.30;99.90;;;;;;2615711;54;20160;-79
2022/11/08 05:03:30;;;;;;;10.50;5.07;;;11.20;99.90;;;;;;2615973;54;20174;-80
2022/11/08 05:09:18;;;;;;;5.60;4.77;;;11.70;99.90;;;;;;2616376;54;20379;-80
2022/11/08 05:15:06;;;;;;;4.57;4.17;;;11.50;99.90;;;;;;2615608;39;20759;-80
2022/11/08 05:27:02;;;;;;;5.83;4.53;;;12.00;99.90;;;;;;2618128;54;20338;-80
2022/11/08 05:32:51;;;;;;;6.50;4.80;;;12.10;99.90;;;;;;2617491;54;20234;-80
2022/11/08 05:42:26;;;;;;;13.20;4.77;;;12.10;99.90;;;;;;2618652;54;20538;-81
2022/11/08 05:48:14;;;;;;;5.40;4.77;;;11.90;99.90;;;;;;2618368;54;20434;-80
2022/11/08 05:54:03;;;;;;;7.73;5.60;;;12.00;99.90;;;;;;2625087;54;20110;-81
2022/11/08 05:59:51;;;;;;;7.43;5.30;;;12.10;99.90;;;;;;2623700;54;20410;-80
2022/11/08 06:05:39;;;;;;;5.93;5.43;;;12.30;99.90;;;;;;2623395;54;20151;-79
2022/11/08 06:11:26;;;;;;;5.90;5.50;;;12.40;99.90;;;;;;2622991;54;20159;-79
2022/11/08 06:17:15;;;;;;;6.23;5.70;;;12.30;99.90;;;;;;2624038;54;20149;-79
2022/11/08 06:23:03;;;;;;;7.43;6.00;;;12.50;99.90;;;;;;2623721;54;20467;-80
2022/11/08 06:28:51;;;;;;;5.83;5.33;;;12.40;99.90;;;;;;2624209;54;20175;-77
2022/11/08 06:34:39;;;;;;;6.40;5.93;;;12.50;99.90;;;;;;2622858;54;20246;-79
2022/11/08 06:37:55;;;;;;;7.37;6.73;;;12.70;99.90;;;;;;2623392;46;20423;-81
2022/11/08 06:40:20;;;;;;;7.40;6.90;;;12.50;99.90;;;;;;2624921;54;20159;-79
2022/11/08 06:46:08;;;;;;;6.80;6.30;;;12.80;99.90;;;;;;2621208;54;20147;-79
2022/11/08 06:51:56;;;;;;;7.43;6.87;;;13.00;99.90;;;;;;2616766;54;20130;-77
2022/11/08 06:57:44;;;;;;;7.37;6.67;;;13.10;99.90;;;;;;2616433;39;20649;-77
2022/11/08 07:03:32;;;;;;;6.87;6.37;;;13.00;99.90;;;;;;2615905;54;20118;-77
2022/11/08 07:09:20;;;;;;;7.30;6.80;;;13.20;99.90;;;;;;2616260;54;20822;-75
2022/11/08 07:15:08;;;;;;;6.97;6.57;;;13.50;99.90;;;;;;2616235;54;20643;-79
2022/11/08 07:21:01;;;;;;;20.83;7.50;;;13.60;99.20;;;;;;2616398;39;21005;-80
2022/11/08 07:26:48;;;;;;;7.87;6.97;;;13.80;95.50;;;;;;2616749;39;20850;-79
2022/11/08 07:32:36;;;;;;;16.63;7.47;;;13.80;94.90;;;;;;2615453;54;20262;-79
2022/11/08 07:42:24;;;;;;;7.50;7.10;;;14.20;91.00;;;;;;2615512;54;20379;-77
2022/11/08 07:48:12;;;;;;;8.07;7.37;;;14.40;83.70;;;;;;2615893;54;20427;-77
2022/11/08 07:54:00;;;;;;;7.43;7.13;;;14.70;77.50;;;;;;2616111;54;20496;-80
2022/11/08 07:59:48;;;;;;;8.73;8.03;;;15.10;71.70;;;;;;2616330;54;20150;-81
2022/11/08 08:05:40;;;;;;;8.13;7.70;;;16.60;50.60;;;;;;2616932;54;20151;-81
2022/11/08 08:11:28;;;;;;;9.00;8.47;;;16.50;44.00;;;;;;2615570;54;20476;-82
2022/11/08 08:17:15;;;;;;;9.20;8.70;;;17.70;38.40;;;;;;2615832;54;20143;-80
2022/11/08 08:23:05;;;;;;;8.77;8.10;;;17.20;38.90;;;;;;2616690;54;20122;-79
2022/11/08 08:28:53;;;;;;;9.40;8.80;;;17.50;40.30;;;;;;2615470;54;20496;-79
2022/11/08 08:34:40;;;;;;;9.10;8.50;;;16.70;42.50;;;;;;2616282;39;20531;-78
2022/11/08 08:37:56;;;;;;;10.60;9.90;;;16.00;44.30;;;;;;2615154;54;20515;-77
2022/11/08 08:40:22;;;;;;;7.87;7.47;;;16.00;46.70;;;;;;2615138;47;20186;-79
2022/11/08 08:46:11;;;;;;;8.10;7.70;;;15.80;48.60;;;;;;2615965;54;20163;-79
2022/11/08 08:51:59;;;;;;;8.20;7.60;;;15.80;49.30;;;;;;2616211;54;20396;-80
2022/11/08 08:57:47;;;;;;;9.17;8.53;;;15.50;50.80;;;;;;2617063;54;20122;-80
2022/11/08 09:03:37;;;;;;;7.77;7.27;;;15.70;50.70;;;;;;2617269;54;20374;-80
2022/11/08 09:09:25;;;;;;;9.03;8.53;;;15.90;47.10;;;;;;2616470;54;20387;-80
2022/11/08 09:12:28;;;;;;;8.03;7.50;;;16.40;43.80;;;;;;2617418;54;20411;-79
2022/11/08 09:14:55;;;;;;;9.20;8.80;;;16.50;43.80;;;;;;2617883;54;20218;-80
2022/11/08 09:20:42;;;;;;;9.40;8.80;;;16.70;41.50;;;;;;2617228;54;20387;-83
2022/11/08 09:26:30;;;;;;;9.43;8.67;;;16.90;39.00;;;;;;2617214;54;20135;-83
2022/11/08 09:32:18;;;;;;;10.13;9.67;;;16.70;39.10;;;;;;2617670;54;20131;-79
2022/11/08 09:44:50;;;;;;;9.33;8.83;;;16.50;39.00;;;;;;2616128;46;20801;-76
2022/11/08 09:50:44;;;;;;;9.03;8.53;;;16.50;39.60;;;;;;2622703;54;20123;-80
2022/11/08 09:56:37;;;;;;;8.80;8.40;;;16.00;42.80;;;;;;2622549;54;20387;-81
2022/11/08 10:02:26;;;;;;;8.90;8.50;;;15.90;42.00;;;;;;2622782;54;20391;-79
2022/11/08 10:19:14;;;;;;;10.50;9.50;;;15.60;44.60;;;;;;2618583;39;20894;-78
2022/11/08 10:31:21;;;;;;;9.00;8.60;;;15.70;46.00;;;;;;2615355;54;20479;-78
2022/11/08 10:37:12;;;;;;;9.27;8.27;;;15.80;44.20;;;;;;2618354;39;20491;-80
2022/11/08 10:58:57;;;;;;;9.83;9.43;;;15.80;47.10;;;;;;2617101;54;20387;-83
2022/11/08 11:04:45;;;;;;;9.23;8.73;;;15.70;46.70;;;;;;2617655;54;20126;-83
2022/11/08 11:10:35;;;;;;;10.10;9.50;;;15.60;48.40;;;;;;2618016;54;20130;-81
2022/11/08 11:16:23;;;;;;;9.17;8.40;;;15.70;47.80;;;;;;2616633;54;21266;-82
2022/11/08 11:22:13;;;;;;;9.63;9.10;;;15.70;48.00;;;;;;2618374;54;20126;-79
2022/11/08 11:28:00;;;;;;;9.57;9.17;;;15.80;46.00;;;;;;2619056;39;20781;-79
2022/11/08 11:33:48;;;;;;;11.13;10.33;;;16.60;43.10;;;;;;2616294;54;20118;-77
2022/11/08 11:39:43;;;;;;;9.90;9.40;;;17.50;39.10;;;;;;2616347;54;20407;-79
2022/11/08 11:45:40;;;;;;;10.57;10.07;;;17.30;36.90;;;;;;2616698;39;20782;-83
2022/11/08 11:51:29;;;;;;;10.27;9.67;;;17.00;38.90;;;;;;2616583;39;20814;-80
2022/11/08 12:53:27;;;;;;;9.77;9.27;;;20.00;30.00;;;;;;2616912;54;20399;-84
2022/11/08 12:59:22;;;;;;;13.27;10.30;;;19.50;30.70;;;;;;2616683;54;20387;-82
2022/11/08 13:05:27;;;;;;;11.13;10.40;;;18.30;35.10;;;;;;2617226;54;20366;-81
2022/11/08 13:18:10;;;;;;;9.70;9.10;;;18.20;37.60;;;;;;2615670;54;20387;-82
2022/11/08 13:24:06;;;;;;;10.80;10.20;;;18.10;37.40;;;;;;2617872;39;20842;-79
2022/11/08 13:29:56;;;;;;;10.00;9.50;;;18.10;37.30;;;;;;2615245;54;20367;-82
2022/11/08 13:46:17;;;;;;;9.63;9.23;;;16.90;44.20;;;;;;2617693;54;21088;-80
2022/11/08 13:52:42;;;;;;;8.77;8.27;;;16.80;46.60;;;;;;2618941;54;20406;-80
2022/11/08 14:04:52;;;;;;;9.60;9.00;;;16.50;51.00;;;;;;2615857;54;20973;-77
2022/11/08 14:23:50;;;;;;;9.80;9.10;;;16.50;51.10;;;;;;2616776;54;20387;-80
2022/11/08 14:29:37;;;;;;;9.40;8.80;;;16.40;51.90;;;;;;2616848;54;20403;-81
2022/11/08 14:35:25;;;;;;;10.00;9.30;;;16.30;53.00;;;;;;2616071;54;20663;-81
2022/11/08 14:47:30;;;;;;;9.87;9.27;;;16.20;53.80;;;;;;2616641;46;20522;-81
2022/11/08 14:53:25;;;;;;;8.97;8.57;;;16.10;55.70;;;;;;2616923;54;20384;-78
2022/11/08 14:59:14;;;;;;;9.20;8.60;;;16.10;56.70;;;;;;2617353;54;20431;-80
2022/11/08 15:05:02;;;;;;;9.40;9.00;;;16.10;56.00;;;;;;2616572;54;20431;-81
2022/11/08 15:10:57;;;;;;;10.43;9.67;;;16.10;55.60;;;;;;2617371;54;20439;-80
2022/11/08 15:16:51;;;;;;;10.40;9.70;;;16.10;56.10;;;;;;2616820;54;21012;-81
2022/11/08 15:22:39;;;;;;;9.00;8.60;;;16.20;55.00;;;;;;2617082;54;20391;-80
2022/11/08 15:28:32;;;;;;;9.53;8.93;;;16.10;56.20;;;;;;2617678;54;20415;-80
2022/11/08 15:46:54;;;;;;;9.10;8.60;;;16.00;59.40;;;;;;2616448;54;20443;-81
2022/11/08 15:49:57;;;;;;;11.23;10.40;;;15.90;62.10;;;;;;2616422;54;20419;-80
2022/11/08 16:02:21;;;;;;;6.37;5.87;;;15.70;80.60;;;;;;2617532;54;20391;-81
2022/11/08 16:08:09;;;;;;;6.13;5.77;;;15.40;97.90;;;;;;2619231;54;20436;-80
2022/11/08 16:13:57;;;;;;;6.13;5.43;;;15.30;97.20;;;;;;2618369;54;20810;-81
2022/11/08 16:19:45;;;;;;;5.50;5.20;;;15.30;95.00;;;;;;2624035;54;20162;-81
2022/11/08 16:25:38;;;;;;;7.97;7.37;;;15.40;93.90;;;;;;2620386;54;20153;-79
2022/11/08 16:31:26;;;;;;;6.03;5.53;;;15.30;96.40;;;;;;2616211;54;20387;-78
2022/11/08 16:37:14;;;;;;;8.30;7.70;;;15.40;94.80;;;;;;2615879;54;20387;-77
2022/11/08 16:43:02;;;;;;;7.50;7.10;;;15.50;94.30;;;;;;2620632;54;20176;-82
2022/11/08 16:45:27;;;;;;;8.70;8.10;;;15.50;93.90;;;;;;2617362;54;20396;-80
2022/11/08 16:47:53;;;;;;;11.23;8.40;;;15.60;93.50;;;;;;2615509;47;20270;-80
2022/11/08 16:53:41;;;;;;;7.80;7.40;;;15.60;93.30;;;;;;2616588;54;20146;-81
2022/11/08 16:59:29;;;;;;;9.57;8.83;;;15.70;92.00;;;;;;2621179;54;20154;-82
2022/11/08 17:05:20;;;;;;;9.07;8.47;;;15.60;93.30;;;;;;2617221;54;20134;-80
2022/11/08 17:11:15;;;;;;;9.37;8.83;;;15.70;91.70;;;;;;2615630;54;20783;-81
2022/11/08 17:17:02;;;;;;;8.80;8.10;;;15.80;91.40;;;;;;2622287;54;20527;-80
2022/11/08 17:22:50;;;;;;;8.90;8.40;;;15.80;91.10;;;;;;2618856;39;20529;-81
2022/11/08 17:28:38;;;;;;;9.07;8.57;;;15.90;90.70;;;;;;2623472;54;20367;-81
2022/11/08 17:34:28;;;;;;;5.93;5.43;;;15.80;94.30;;;;;;2618229;54;20130;-79
2022/11/08 17:40:19;;;;;;;5.33;4.93;;;15.50;99.90;;;;;;2617347;54;20379;-81
2022/11/08 17:49:57;;;;;;;5.13;4.73;;;15.30;99.90;;;;;;2616511;54;20928;-79
2022/11/08 17:55:52;;;;;;;5.47;4.97;;;15.30;99.90;;;;;;2616993;54;20419;-78
2022/11/08 18:01:40;;;;;;;9.70;4.83;;;15.30;99.90;;;;;;2616057;54;20391;-79
2022/11/08 18:07:28;;;;;;;5.53;5.13;;;15.40;99.90;;;;;;2616477;39;20819;-78
2022/11/08 18:13:17;;;;;;;7.00;3.90;;;15.30;99.90;;;;;;2616471;54;20149;-79
2022/11/08 18:19:07;;;;;;;5.63;5.10;;;15.40;99.90;;;;;;2616018;54;20544;-79
2022/11/08 18:24:55;;;;;;;13.27;8.40;;;15.70;99.90;;;;;;2615393;39;20787;-78
2022/11/08 18:30:43;;;;;;;13.97;12.63;;;15.70;99.90;;;;;;2616354;54;20246;-79
2022/11/08 18:36:31;;;;;;;9.10;6.40;;;15.80;99.90;;;;;;2616508;54;20372;-79
2022/11/08 18:42:19;;;;;;;7.70;7.00;;;15.70;99.90;;;;;;2616115;54;20133;-79
2022/11/08 18:45:24;;;;;;;7.27;6.77;;;15.80;99.90;;;;;;2615333;47;20412;-78
2022/11/08 18:47:50;;;;;;;7.40;6.90;;;15.90;99.90;;;;;;2615946;39;20604;-78
2022/11/08 18:53:39;;;;;;;7.90;7.17;;;15.80;99.90;;;;;;2615836;54;20495;-79
2022/11/08 18:59:26;;;;;;;8.23;7.73;;;16.00;99.20;;;;;;2615964;54;20508;-79
2022/11/08 19:05:14;;;;;;;8.90;8.20;;;16.10;98.70;;;;;;2615449;54;20163;-78
2022/11/08 19:11:08;;;;;;;8.50;7.90;;;15.90;99.90;;;;;;2616077;54;20150;-80
2022/11/08 19:16:56;;;;;;;8.50;7.80;;;16.00;99.80;;;;;;2612863;54;20965;-79
2022/11/08 19:22:44;;;;;;;7.60;7.00;;;16.00;98.70;;;;;;2615934;54;20162;-79
2022/11/08 19:28:34;;;;;;;8.83;8.13;;;16.10;98.20;;;;;;2616315;39;20589;-79
2022/11/08 19:34:22;;;;;;;9.00;8.30;;;16.10;98.70;;;;;;2616802;54;20383;-80
2022/11/08 19:40:10;;;;;;;7.30;6.90;;;16.00;99.60;;;;;;2615872;54;20667;-79
2022/11/08 19:49:57;;;;;;;10.90;7.50;;;16.10;98.80;;;;;;2616234;54;20379;-80
2022/11/08 19:55:45;;;;;;;8.40;7.73;;;16.00;99.90;;;;;;2616037;54;20398;-79
2022/11/08 20:01:38;;;;;;;7.70;7.20;;;16.00;99.90;;;;;;2617421;39;20643;-81
2022/11/08 20:07:26;;;;;;;7.90;7.40;;;16.00;99.90;;;;;;2615919;47;20662;-79
2022/11/08 20:13:14;;;;;;;13.03;11.93;;;16.10;99.90;;;;;;2615406;54;20150;-80
2022/11/08 20:19:07;;;;;;;9.73;9.20;;;16.20;99.90;;;;;;2615833;54;20165;-79
2022/11/08 20:24:55;;;;;;;8.60;8.10;;;16.30;99.90;;;;;;2616101;54;20418;-80
2022/11/08 20:30:43;;;;;;;8.07;7.57;;;16.30;99.90;;;;;;2616593;54;20130;-79
2022/11/08 20:36:32;;;;;;;7.87;7.47;;;16.10;99.90;;;;;;2616663;54;20119;-79
2022/11/08 20:42:21;;;;;;;8.20;7.70;;;16.00;99.90;;;;;;2617434;54;20447;-79
2022/11/08 20:45:27;;;;;;;7.83;7.27;;;16.20;99.90;;;;;;2617207;54;20427;-80
2022/11/08 20:47:54;;;;;;;7.70;7.10;;;16.10;99.90;;;;;;2616185;54;20967;-78
2022/11/08 20:53:42;;;;;;;8.00;7.50;;;15.90;99.90;;;;;;2617264;54;20375;-79
2022/11/08 20:59:30;;;;;;;7.13;6.70;;;15.90;99.90;;;;;;2616814;54;20422;-78
2022/11/08 21:05:18;;;;;;;7.63;7.07;;;16.00;99.90;;;;;;2617661;54;20399;-79
2022/11/08 21:11:07;;;;;;;7.40;6.97;;;15.80;99.90;;;;;;2617116;54;20146;-79
2022/11/08 21:16:55;;;;;;;10.20;8.10;;;15.80;99.90;;;;;;2616733;54;20371;-79
2022/11/08 21:22:43;;;;;;;7.80;7.40;;;15.80;99.90;;;;;;2616882;54;20154;-80
2022/11/08 21:28:31;;;;;;;7.60;7.20;;;15.80;99.90;;;;;;2616184;54;20162;-80
2022/11/08 21:34:19;;;;;;;7.20;6.80;;;15.70;99.90;;;;;;2616931;54;20371;-80
2022/11/08 21:40:07;;;;;;;8.40;7.70;;;15.80;99.90;;;;;;2617686;54;20669;-79
2022/11/08 21:49:58;;;;;;;8.00;7.40;;;15.80;99.90;;;;;;2615412;54;20447;-79
2022/11/08 21:55:45;;;;;;;7.63;7.23;;;15.70;99.90;;;;;;2617864;54;20392;-79
2022/11/08 22:01:33;;;;;;;8.50;7.27;;;15.60;99.90;;;;;;2617406;54;20735;-79
2022/11/08 22:07:20;;;;;;;8.30;7.50;;;15.60;99.90;;;;;;2616754;54;20213;-80
2022/11/08 22:13:08;;;;;;;7.47;6.97;;;15.50;99.90;;;;;;2617213;46;20146;-80
2022/11/08 22:18:56;;;;;;;7.10;6.50;;;15.60;99.90;;;;;;2616443;54;20138;-77
2022/11/08 22:24:44;;;;;;;7.20;6.80;;;15.60;99.90;;;;;;2617939;54;20142;-79
2022/11/08 22:30:31;;;;;;;7.83;7.33;;;15.50;99.90;;;;;;2617052;54;20169;-79
2022/11/08 22:36:19;;;;;;;7.47;6.50;;;15.60;99.90;;;;;;2616665;54;20130;-79
2022/11/08 22:42:07;;;;;;;7.40;6.90;;;15.70;99.90;;;;;;2616402;54;20122;-81
2022/11/08 22:47:55;;;;;;;7.27;6.87;;;15.60;99.90;;;;;;2615767;54;20524;-80
2022/11/08 22:53:43;;;;;;;7.53;7.03;;;15.60;99.90;;;;;;2615875;54;20178;-78
2022/11/08 22:59:32;;;;;;;7.40;7.00;;;15.80;99.90;;;;;;2615991;54;20143;-75
2022/11/08 23:05:20;;;;;;;7.47;6.97;;;15.60;99.90;;;;;;2615705;54;20435;-75
2022/11/08 23:17:14;;;;;;;7.47;6.87;;;15.70;99.90;;;;;;2615964;54;20386;-75
2022/11/08 23:35:17;;;;;;;6.13;5.80;;;15.60;99.90;;;;;;2615694;54;20383;-76
2022/11/08 23:47:11;;;;;;;6.77;6.47;;;15.50;99.90;;;;;;2615550;54;20398;-79
2022/11/08 23:49:55;;;;;;;6.93;6.53;;;15.50;99.90;;;;;;2616019;54;20483;-79
2022/11/08 23:52:21;;;;;;;6.97;6.53;;;15.50;99.90;;;;;;2615907;46;20190;-80
2022/11/08 23:58:09;;;;;;;8.10;6.60;;;15.60;99.90;;;;;;2615957;54;20800;-80
